createdAt,value
2018-08-28T00:00:21.126Z,0
2018-08-28T00:01:31.188Z,0
2018-08-28T00:02:41.264Z,0
2018-08-28T00:03:51.344Z,0
2018-08-28T00:05:01.446Z,0
2018-08-28T00:06:11.244Z,0
2018-08-28T00:07:21.331Z,0
2018-08-28T00:08:31.139Z,0
2018-08-28T00:09:41.242Z,0
2018-08-28T00:10:51.409Z,0
2018-08-28T00:12:01.480Z,0
2018-08-28T00:13:11.289Z,0
2018-08-28T00:14:21.381Z,0
2018-08-28T00:15:31.473Z,0
2018-08-28T00:16:41.549Z,0
2018-08-28T00:17:51.659Z,0
2018-08-28T00:19:01.759Z,0
2018-08-28T00:20:11.589Z,0
2018-08-28T00:21:21.657Z,0
2018-08-28T00:22:31.742Z,0
2018-08-28T00:23:41.828Z,0
2018-08-28T00:24:51.645Z,0
2018-08-28T00:26:01.724Z,0
2018-08-28T00:27:11.546Z,0
2018-08-28T00:28:21.616Z,0
2018-08-28T00:29:31.737Z,0
2018-08-28T00:30:41.825Z,0
2018-08-28T00:31:51.899Z,0
2018-08-28T00:33:01.959Z,0
2018-08-28T00:34:12.057Z,0
2018-08-28T00:35:21.927Z,0
2018-08-28T00:36:31.994Z,0
2018-08-28T00:37:41.794Z,0
2018-08-28T00:38:51.877Z,0
2018-08-28T00:40:01.695Z,0
2018-08-28T00:41:11.495Z,0
2018-08-28T00:42:21.584Z,0
2018-08-28T00:43:31.668Z,0
2018-08-28T00:44:41.759Z,0
2018-08-28T00:45:51.571Z,0
2018-08-28T00:47:01.652Z,0
2018-08-28T00:48:11.733Z,0
2018-08-28T00:49:21.577Z,0
2018-08-28T00:50:31.639Z,0
2018-08-28T00:51:41.716Z,0
2018-08-28T00:52:51.782Z,0
2018-08-28T00:54:01.861Z,0
2018-08-28T00:55:11.935Z,0
2018-08-28T00:56:21.742Z,0
2018-08-28T00:57:31.794Z,0
2018-08-28T00:58:41.856Z,0
2018-08-28T00:59:51.941Z,0
2018-08-28T01:01:02.007Z,0
2018-08-28T01:02:12.086Z,0
2018-08-28T01:03:22.178Z,0
2018-08-28T01:04:32.284Z,0
2018-08-28T01:05:42.340Z,0
2018-08-28T01:06:52.417Z,0
2018-08-28T01:08:02.510Z,0
2018-08-28T01:09:12.577Z,0
2018-08-28T01:10:22.639Z,0
2018-08-28T01:11:32.707Z,0
2018-08-28T01:12:42.522Z,0
2018-08-28T01:13:52.334Z,0
2018-08-28T01:15:02.410Z,0
2018-08-28T01:16:12.557Z,0
2018-08-28T01:17:22.700Z,0
2018-08-28T01:18:32.762Z,0
2018-08-28T01:19:42.575Z,0
2018-08-28T01:20:52.369Z,0
2018-08-28T01:22:02.176Z,0
2018-08-28T01:23:12.259Z,0
2018-08-28T01:24:21.813Z,0
2018-08-28T01:25:31.894Z,0
2018-08-28T01:26:41.996Z,0
2018-08-28T01:27:52.109Z,0
2018-08-28T01:29:01.935Z,0
2018-08-28T01:30:12.022Z,0
2018-08-28T01:31:22.101Z,0
2018-08-28T01:32:31.916Z,0
2018-08-28T01:33:41.994Z,0
2018-08-28T01:34:51.842Z,0
2018-08-28T01:36:01.896Z,0
2018-08-28T01:37:11.621Z,0
2018-08-28T01:38:21.960Z,0
2018-08-28T01:39:31.769Z,0
2018-08-28T01:40:41.833Z,0
2018-08-28T01:41:51.907Z,0
2018-08-28T01:43:01.996Z,0
2018-08-28T01:44:12.075Z,0
2018-08-28T01:45:22.153Z,0
2018-08-28T01:46:31.972Z,0
2018-08-28T01:47:42.053Z,0
2018-08-28T01:48:52.135Z,0
2018-08-28T01:50:02.223Z,0
2018-08-28T01:51:12.061Z,0
2018-08-28T01:52:22.151Z,0
2018-08-28T01:53:32.242Z,0
2018-08-28T01:54:42.331Z,0
2018-08-28T01:55:52.401Z,0
2018-08-28T01:57:02.486Z,0
2018-08-28T01:58:12.574Z,0
2018-08-28T01:59:22.649Z,0
2018-08-28T02:00:32.732Z,0
2018-08-28T02:01:42.549Z,0
2018-08-28T02:02:52.686Z,0
2018-08-28T02:04:02.492Z,0
2018-08-28T02:05:12.319Z,0
2018-08-28T02:06:22.390Z,0
2018-08-28T02:07:32.459Z,0
2018-08-28T02:08:42.359Z,0
2018-08-28T02:09:52.448Z,0
2018-08-28T02:11:02.731Z,0
2018-08-28T02:12:12.797Z,0
2018-08-28T02:13:23.111Z,0
2018-08-28T02:14:33.568Z,0
2018-08-28T02:15:43.631Z,0
2018-08-28T02:16:53.774Z,0
2018-08-28T02:18:03.851Z,0
2018-08-28T02:19:13.942Z,0
2018-08-28T02:20:24.028Z,0
2018-08-28T02:21:33.845Z,0
2018-08-28T02:22:43.382Z,0
2018-08-28T02:23:53.462Z,0
2018-08-28T02:25:03.557Z,0
2018-08-28T02:26:13.625Z,0
2018-08-28T02:27:23.686Z,0
2018-08-28T02:28:33.757Z,0
2018-08-28T02:29:43.840Z,0
2018-08-28T02:30:53.743Z,0
2018-08-28T02:32:03.828Z,0
2018-08-28T02:33:13.917Z,0
2018-08-28T02:34:23.733Z,0
2018-08-28T02:35:33.814Z,0
2018-08-28T02:36:43.891Z,0
2018-08-28T02:37:54.018Z,0
2018-08-28T02:39:04.088Z,0
2018-08-28T02:40:14.171Z,0
2018-08-28T02:41:23.992Z,0
2018-08-28T02:42:34.062Z,0
2018-08-28T02:43:44.126Z,0
2018-08-28T02:44:54.189Z,0
2018-08-28T02:46:04.267Z,0
2018-08-28T02:47:14.350Z,0
2018-08-28T02:48:24.420Z,0
2018-08-28T02:49:34.495Z,0
2018-08-28T02:50:44.561Z,0
2018-08-28T02:51:54.652Z,0
2018-08-28T02:53:04.735Z,0
2018-08-28T02:54:14.822Z,0
2018-08-28T02:55:24.629Z,0
2018-08-28T02:56:34.767Z,0
2018-08-28T02:57:44.847Z,0
2018-08-28T02:58:54.928Z,0
2018-08-28T03:00:04.747Z,0
2018-08-28T03:01:14.815Z,0
2018-08-28T03:02:24.888Z,0
2018-08-28T03:34:53.884Z,0
2018-08-28T03:36:03.951Z,0
2018-08-28T03:37:13.826Z,0
2018-08-28T03:38:23.908Z,0
2018-08-28T03:39:33.708Z,0
2018-08-28T03:40:43.769Z,0
2018-08-28T03:41:53.304Z,0
2018-08-28T03:43:03.119Z,0
2018-08-28T03:44:13.177Z,0
2018-08-28T03:45:23.027Z,0
2018-08-28T03:46:32.843Z,0
2018-08-28T03:47:42.645Z,0
2018-08-28T03:48:52.718Z,0
2018-08-28T03:50:02.783Z,0
2018-08-28T03:51:12.975Z,0
2018-08-28T03:52:23.054Z,0
2018-08-28T03:53:32.855Z,0
2018-08-28T03:54:42.932Z,0
2018-08-28T03:55:53.015Z,0
2018-08-28T03:57:03.235Z,0
2018-08-28T03:58:13.300Z,0
2018-08-28T03:59:23.109Z,0
2018-08-28T04:00:33.196Z,0
2018-08-28T04:01:43.008Z,0
2018-08-28T04:02:53.086Z,0
2018-08-28T04:04:03.510Z,0
2018-08-28T04:05:13.327Z,0
2018-08-28T04:06:23.136Z,0
2018-08-28T04:07:33.212Z,0
2018-08-28T04:08:43.027Z,0
2018-08-28T04:09:53.121Z,0
2018-08-28T04:11:03.189Z,0
2018-08-28T04:12:13.283Z,0
2018-08-28T04:13:23.365Z,0
2018-08-28T04:14:33.440Z,5
2018-08-28T04:15:43.303Z,5
2018-08-28T04:16:53.160Z,5
2018-08-28T04:18:03.008Z,5
2018-08-28T04:19:13.095Z,5
2018-08-28T04:20:22.895Z,5
2018-08-28T04:21:32.978Z,5
2018-08-28T04:22:43.595Z,10
2018-08-28T04:23:53.411Z,10
2018-08-28T04:25:03.499Z,10
2018-08-28T04:26:13.577Z,15
2018-08-28T04:27:23.691Z,10
2018-08-28T04:28:33.799Z,15
2018-08-28T04:29:43.876Z,15
2018-08-28T04:30:54.257Z,15
2018-08-28T04:32:04.090Z,15
2018-08-28T04:33:13.974Z,15
2018-08-28T04:34:23.804Z,15
2018-08-28T04:35:33.883Z,20
2018-08-28T04:36:43.966Z,20
2018-08-28T04:37:54.052Z,20
2018-08-28T04:39:04.191Z,15
2018-08-28T04:40:14.258Z,20
2018-08-28T04:41:24.083Z,20
2018-08-28T04:42:34.175Z,20
2018-08-28T04:43:43.995Z,20
2018-08-28T04:44:54.067Z,20
2018-08-28T04:46:03.889Z,25
2018-08-28T04:47:13.972Z,25
2018-08-28T04:48:23.834Z,25
2018-08-28T04:49:33.939Z,25
2018-08-28T04:50:43.772Z,30
2018-08-28T04:51:53.329Z,35
2018-08-28T04:53:03.137Z,25
2018-08-28T04:54:13.506Z,25
2018-08-28T04:55:23.648Z,30
2018-08-28T04:56:33.714Z,30
2018-08-28T04:57:43.565Z,30
2018-08-28T04:58:53.651Z,30
2018-08-28T05:00:03.725Z,30
2018-08-28T05:01:13.540Z,30
2018-08-28T05:02:23.431Z,30
2018-08-28T05:03:33.509Z,30
2018-08-28T05:04:43.579Z,35
2018-08-28T05:05:53.662Z,35
2018-08-28T05:07:03.489Z,30
2018-08-28T05:08:13.597Z,35
2018-08-28T05:09:23.152Z,35
2018-08-28T05:10:33.214Z,35
2018-08-28T05:11:43.524Z,35
2018-08-28T05:12:53.656Z,35
2018-08-28T05:14:03.720Z,35
2018-08-28T05:15:13.802Z,35
2018-08-28T05:16:23.893Z,35
2018-08-28T05:17:33.991Z,35
2018-08-28T05:18:44.063Z,35
2018-08-28T05:19:54.153Z,40
2018-08-28T05:21:04.227Z,40
2018-08-28T05:22:14.031Z,45
2018-08-28T05:23:24.110Z,50
2018-08-28T05:24:34.191Z,55
2018-08-28T05:25:44.307Z,55
2018-08-28T05:26:54.387Z,55
2018-08-28T05:28:04.454Z,50
2018-08-28T05:29:14.533Z,45
2018-08-28T05:30:24.566Z,40
2018-08-28T05:31:34.440Z,40
2018-08-28T05:32:44.503Z,35
2018-08-28T05:33:54.323Z,35
2018-08-28T05:35:04.407Z,35
2018-08-28T05:36:14.231Z,35
2018-08-28T05:37:24.363Z,35
2018-08-28T05:38:34.444Z,35
2018-08-28T05:39:44.551Z,35
2018-08-28T05:40:54.633Z,40
2018-08-28T05:42:04.442Z,45
2018-08-28T05:43:14.514Z,50
2018-08-28T05:44:24.062Z,55
2018-08-28T05:45:34.131Z,60
2018-08-28T05:46:44.205Z,60
2018-08-28T05:47:54.298Z,65
2018-08-28T05:49:04.372Z,65
2018-08-28T05:50:14.456Z,70
2018-08-28T05:51:24.272Z,70
2018-08-28T05:52:34.359Z,65
2018-08-28T05:53:44.422Z,60
2018-08-28T05:54:54.524Z,60
2018-08-28T05:56:04.875Z,60
2018-08-28T05:57:14.699Z,60
2018-08-28T05:58:24.783Z,65
2018-08-28T05:59:34.869Z,70
2018-08-28T06:00:44.676Z,70
2018-08-28T06:01:54.751Z,70
2018-08-28T06:03:05.262Z,75
2018-08-28T06:04:15.101Z,75
2018-08-28T06:05:25.182Z,80
2018-08-28T06:06:34.829Z,80
2018-08-28T06:07:44.644Z,80
2018-08-28T06:08:55.036Z,80
2018-08-28T06:10:05.134Z,80
2018-08-28T06:11:15.211Z,85
2018-08-28T06:12:25.366Z,95
2018-08-28T06:13:35.440Z,100
2018-08-28T06:14:45.947Z,120
2018-08-28T06:15:56.111Z,125
2018-08-28T06:17:06.211Z,130
2018-08-28T06:18:16.353Z,130
2018-08-28T06:19:26.443Z,140
2018-08-28T06:20:36.546Z,130
2018-08-28T06:21:46.686Z,125
2018-08-28T06:22:56.598Z,125
2018-08-28T06:24:06.695Z,130
2018-08-28T06:25:16.523Z,140
2018-08-28T06:26:26.536Z,150
2018-08-28T06:27:36.738Z,170
2018-08-28T06:28:46.813Z,170
2018-08-28T06:29:56.908Z,175
2018-08-28T06:31:06.746Z,180
2018-08-28T06:32:16.819Z,180
2018-08-28T06:33:26.920Z,185
2018-08-28T06:34:37.050Z,175
2018-08-28T06:35:47.143Z,165
2018-08-28T06:36:57.242Z,140
2018-08-28T06:38:07.540Z,130
2018-08-28T06:39:17.360Z,110
2018-08-28T06:40:27.504Z,105
2018-08-28T06:41:37.579Z,110
2018-08-28T06:42:47.699Z,110
2018-08-28T06:43:58.448Z,115
2018-08-28T06:45:08.671Z,120
2018-08-28T06:46:18.749Z,120
2018-08-28T06:47:28.818Z,130
2018-08-28T06:48:38.635Z,120
2018-08-28T06:49:48.999Z,125
2018-08-28T06:50:59.050Z,125
2018-08-28T06:52:09.120Z,135
2018-08-28T06:53:18.928Z,145
2018-08-28T06:54:28.485Z,155
2018-08-28T06:55:38.590Z,180
2018-08-28T06:56:48.844Z,180
2018-08-28T06:57:59.414Z,190
2018-08-28T06:59:09.498Z,175
2018-08-28T07:00:19.575Z,165
2018-08-28T07:01:29.670Z,165
2018-08-28T07:02:39.552Z,170
2018-08-28T07:03:49.738Z,180
2018-08-28T07:04:59.840Z,185
2018-08-28T07:06:09.757Z,155
2018-08-28T07:07:19.831Z,150
2018-08-28T07:08:29.923Z,145
2018-08-28T07:09:39.989Z,135
2018-08-28T07:10:50.066Z,135
2018-08-28T07:11:59.937Z,140
2018-08-28T07:13:10.473Z,150
2018-08-28T07:14:20.551Z,150
2018-08-28T07:15:30.899Z,155
2018-08-28T07:16:40.728Z,155
2018-08-28T07:17:50.800Z,170
2018-08-28T07:19:01.201Z,160
2018-08-28T07:20:11.300Z,185
2018-08-28T07:21:21.134Z,175
2018-08-28T07:22:30.958Z,170
2018-08-28T07:23:40.797Z,175
2018-08-28T07:24:50.900Z,160
2018-08-28T07:26:01.549Z,185
2018-08-28T07:27:11.727Z,180
2018-08-28T07:28:21.829Z,180
2018-08-28T07:29:31.907Z,175
2018-08-28T07:30:42.010Z,170
2018-08-28T07:31:52.261Z,165
2018-08-28T07:33:02.403Z,175
2018-08-28T07:34:12.516Z,175
2018-08-28T07:35:22.646Z,150
2018-08-28T07:36:32.477Z,175
2018-08-28T07:37:43.046Z,175
2018-08-28T07:38:52.850Z,160
2018-08-28T07:40:02.945Z,175
2018-08-28T07:41:13.151Z,175
2018-08-28T07:42:23.261Z,175
2018-08-28T07:43:33.350Z,175
2018-08-28T07:44:43.451Z,175
2018-08-28T07:45:54.503Z,175
2018-08-28T07:47:07.380Z,175
2018-08-28T07:48:20.700Z,170
2018-08-28T07:49:34.084Z,170
2018-08-28T07:50:48.400Z,175
2018-08-28T07:52:09.335Z,175
2018-08-28T07:53:30.188Z,175
2018-08-28T07:54:51.763Z,180
2018-08-28T07:56:11.557Z,165
2018-08-28T07:57:28.732Z,155
2018-08-28T07:58:45.513Z,170
2018-08-28T08:00:03.397Z,185
2018-08-28T08:01:20.269Z,180
2018-08-28T08:02:35.211Z,165
2018-08-28T08:03:49.857Z,150
2018-08-28T08:05:03.466Z,180
2018-08-28T08:06:18.595Z,185
2018-08-28T08:07:33.532Z,155
2018-08-28T08:08:45.507Z,180
2018-08-28T08:09:59.335Z,185
2018-08-28T08:11:13.569Z,180
2018-08-28T08:12:28.666Z,185
2018-08-28T08:13:44.179Z,185
2018-08-28T08:14:59.770Z,185
2018-08-28T08:16:11.214Z,180
2018-08-28T08:17:21.346Z,180
2018-08-28T08:18:31.514Z,180
2018-08-28T08:19:41.653Z,175
2018-08-28T08:20:51.802Z,175
2018-08-28T08:22:02.106Z,175
2018-08-28T08:23:12.252Z,175
2018-08-28T08:24:22.164Z,175
2018-08-28T08:25:32.285Z,175
2018-08-28T08:26:42.421Z,175
2018-08-28T08:27:53.023Z,175
2018-08-28T08:29:03.178Z,175
2018-08-28T08:30:13.418Z,175
2018-08-28T08:31:23.520Z,175
2018-08-28T08:32:33.377Z,175
2018-08-28T08:33:43.753Z,175
2018-08-28T08:34:53.900Z,175
2018-08-28T08:36:03.800Z,175
2018-08-28T08:37:13.889Z,180
2018-08-28T08:38:24.005Z,175
2018-08-28T08:39:34.173Z,175
2018-08-28T08:40:44.317Z,175
2018-08-28T08:41:54.545Z,175
2018-08-28T08:43:04.452Z,175
2018-08-28T08:44:14.296Z,175
2018-08-28T08:45:24.394Z,175
2018-08-28T08:46:34.531Z,175
2018-08-28T08:47:44.673Z,175
2018-08-28T08:48:54.778Z,175
2018-08-28T08:50:04.933Z,180
2018-08-28T08:51:15.098Z,180
2018-08-28T08:52:25.295Z,180
2018-08-28T08:53:35.448Z,185
2018-08-28T08:54:45.622Z,185
2018-08-28T08:55:55.503Z,195
2018-08-28T08:57:05.364Z,195
2018-08-28T08:58:15.234Z,195
2018-08-28T08:59:25.097Z,195
2018-08-28T09:00:35.077Z,195
2018-08-28T09:01:44.979Z,195
2018-08-28T09:02:54.917Z,195
2018-08-28T09:04:05.195Z,195
2018-08-28T09:05:15.303Z,200
2018-08-28T09:06:25.440Z,200
2018-08-28T09:07:35.560Z,200
2018-08-28T09:08:45.682Z,200
2018-08-28T09:09:55.595Z,200
2018-08-28T09:11:05.722Z,200
2018-08-28T09:12:15.825Z,200
2018-08-28T09:13:26.253Z,180
2018-08-28T09:14:36.456Z,190
2018-08-28T09:15:46.649Z,185
2018-08-28T09:16:56.814Z,185
2018-08-28T09:18:06.720Z,185
2018-08-28T09:19:16.957Z,185
2018-08-28T09:20:27.067Z,185
2018-08-28T09:21:37.378Z,185
2018-08-28T09:22:47.499Z,185
2018-08-28T09:23:57.625Z,185
2018-08-28T09:25:07.748Z,185
2018-08-28T09:26:18.101Z,185
2018-08-28T09:27:28.242Z,190
2018-08-28T09:28:38.378Z,190
2018-08-28T09:29:48.491Z,190
2018-08-28T09:30:58.616Z,190
2018-08-28T09:32:08.519Z,190
2018-08-28T09:33:18.702Z,190
2018-08-28T09:34:28.826Z,190
2018-08-28T09:35:38.940Z,190
2018-08-28T09:36:49.102Z,190
2018-08-28T09:37:59.238Z,190
2018-08-28T09:39:09.412Z,190
2018-08-28T09:40:19.536Z,195
2018-08-28T09:41:29.385Z,195
2018-08-28T09:42:39.512Z,195
2018-08-28T09:43:49.939Z,200
2018-08-28T09:44:59.832Z,195
2018-08-28T09:46:10.526Z,195
2018-08-28T09:47:20.662Z,200
2018-08-28T09:48:31.335Z,195
2018-08-28T09:49:41.505Z,200
2018-08-28T09:50:52.181Z,195
2018-08-28T09:52:02.821Z,200
2018-08-28T09:53:12.995Z,195
2018-08-28T09:54:23.143Z,195
2018-08-28T09:55:33.288Z,195
2018-08-28T09:56:43.978Z,195
2018-08-28T09:57:54.164Z,195
2018-08-28T09:59:04.097Z,200
2018-08-28T10:00:14.258Z,200
2018-08-28T10:01:24.157Z,200
2018-08-28T10:02:34.039Z,200
2018-08-28T10:03:44.169Z,200
2018-08-28T10:04:54.939Z,200
2018-08-28T10:06:04.867Z,205
2018-08-28T10:07:14.991Z,200
2018-08-28T10:08:25.160Z,200
2018-08-28T10:09:35.313Z,200
2018-08-28T10:10:45.048Z,200
2018-08-28T10:11:55.165Z,200
2018-08-28T10:13:05.297Z,205
2018-08-28T10:14:15.391Z,205
2018-08-28T10:15:25.515Z,205
2018-08-28T10:16:35.876Z,205
2018-08-28T10:17:46.025Z,205
2018-08-28T10:18:56.451Z,205
2018-08-28T10:20:06.571Z,205
2018-08-28T10:21:16.685Z,205
2018-08-28T10:22:26.796Z,205
2018-08-28T10:23:36.929Z,205
2018-08-28T10:24:47.061Z,210
2018-08-28T10:25:57.180Z,215
2018-08-28T10:27:07.333Z,215
2018-08-28T10:28:17.455Z,215
2018-08-28T10:29:27.606Z,215
2018-08-28T10:30:38.275Z,210
2018-08-28T10:31:48.114Z,215
2018-08-28T10:32:58.564Z,220
2018-08-28T10:34:09.139Z,215
2018-08-28T10:35:19.273Z,215
2018-08-28T10:36:29.386Z,215
2018-08-28T10:37:39.222Z,215
2018-08-28T10:38:49.334Z,215
2018-08-28T10:39:59.452Z,215
2018-08-28T10:41:09.594Z,215
2018-08-28T10:42:19.770Z,215
2018-08-28T10:43:30.127Z,210
2018-08-28T10:44:39.989Z,215
2018-08-28T10:45:49.843Z,215
2018-08-28T10:47:01.034Z,220
2018-08-28T10:48:10.978Z,225
2018-08-28T10:49:21.093Z,225
2018-08-28T10:50:31.221Z,220
2018-08-28T10:51:41.362Z,225
2018-08-28T10:52:51.714Z,220
2018-08-28T10:54:01.963Z,225
2018-08-28T10:55:12.185Z,225
2018-08-28T10:56:22.321Z,225
2018-08-28T10:57:32.482Z,230
2018-08-28T10:58:42.856Z,240
2018-08-28T10:59:52.765Z,235
2018-08-28T11:01:02.887Z,230
2018-08-28T11:02:12.798Z,235
2018-08-28T11:03:22.908Z,235
2018-08-28T11:04:33.352Z,250
2018-08-28T11:05:43.460Z,265
2018-08-28T11:06:53.588Z,270
2018-08-28T11:08:03.776Z,265
2018-08-28T11:09:13.896Z,270
2018-08-28T11:10:24.018Z,275
2018-08-28T11:11:34.176Z,285
2018-08-28T11:12:44.306Z,290
2018-08-28T11:13:54.472Z,240
2018-08-28T11:15:04.812Z,270
2018-08-28T11:16:16.130Z,300
2018-08-28T11:17:26.548Z,300
2018-08-28T11:18:36.450Z,315
2018-08-28T11:19:46.591Z,325
2018-08-28T11:20:56.714Z,340
2018-08-28T11:22:06.852Z,345
2018-08-28T11:23:17.009Z,340
2018-08-28T11:24:27.139Z,350
2018-08-28T11:25:37.027Z,350
2018-08-28T11:26:47.225Z,330
2018-08-28T11:27:57.411Z,355
2018-08-28T11:29:07.678Z,345
2018-08-28T11:30:17.852Z,345
2018-08-28T11:31:28.334Z,330
2018-08-28T11:32:38.537Z,325
2018-08-28T11:33:48.912Z,320
2018-08-28T11:34:59.120Z,305
2018-08-28T11:36:10.306Z,270
2018-08-28T11:37:20.532Z,290
2018-08-28T11:38:31.230Z,220
2018-08-28T11:39:41.483Z,260
2018-08-28T11:40:51.610Z,295
2018-08-28T11:42:01.825Z,215
2018-08-28T11:43:11.968Z,225
2018-08-28T11:44:21.819Z,305
2018-08-28T11:45:32.018Z,280
2018-08-28T11:46:42.149Z,315
2018-08-28T11:47:52.359Z,325
2018-08-28T11:49:02.516Z,290
2018-08-28T11:50:12.702Z,290
2018-08-28T11:51:22.842Z,255
2018-08-28T11:52:33.215Z,280
2018-08-28T11:53:43.379Z,270
2018-08-28T11:54:53.524Z,325
2018-08-28T11:56:03.701Z,295
2018-08-28T11:57:13.545Z,270
2018-08-28T11:58:23.676Z,255
2018-08-28T11:59:33.797Z,270
2018-08-28T12:00:43.961Z,285
2018-08-28T12:01:54.155Z,275
2018-08-28T12:03:04.065Z,270
2018-08-28T12:04:14.248Z,300
2018-08-28T12:05:24.851Z,245
2018-08-28T12:06:35.163Z,270
2018-08-28T12:07:45.507Z,245
2018-08-28T12:08:55.692Z,255
2018-08-28T12:10:05.840Z,245
2018-08-28T12:11:15.957Z,250
2018-08-28T12:12:26.130Z,235
2018-08-28T12:13:36.360Z,230
2018-08-28T12:14:46.258Z,220
2018-08-28T12:15:56.387Z,230
2018-08-28T12:17:06.515Z,240
2018-08-28T12:18:16.359Z,225
2018-08-28T12:19:26.303Z,210
2018-08-28T12:20:37.155Z,250
2018-08-28T12:21:47.295Z,225
2018-08-28T12:22:57.543Z,270
2018-08-28T12:24:08.090Z,275
2018-08-28T12:25:17.399Z,275
2018-08-28T12:26:27.512Z,270
2018-08-28T12:27:37.767Z,265
2018-08-28T12:28:47.884Z,245
2018-08-28T12:29:58.166Z,245
2018-08-28T12:31:08.292Z,180
2018-08-28T12:32:18.447Z,230
2018-08-28T12:33:28.596Z,225
2018-08-28T12:34:38.830Z,225
2018-08-28T12:35:48.957Z,225
2018-08-28T12:37:00.139Z,225
2018-08-28T12:38:10.020Z,225
2018-08-28T12:39:20.229Z,220
2018-08-28T12:40:30.364Z,225
2018-08-28T12:41:40.472Z,225
2018-08-28T12:42:50.665Z,225
2018-08-28T12:44:01.285Z,220
2018-08-28T12:45:11.477Z,225
2018-08-28T12:46:21.907Z,205
2018-08-28T12:47:31.813Z,185
2018-08-28T12:48:41.964Z,155
2018-08-28T12:49:52.131Z,155
2018-08-28T12:51:02.377Z,170
2018-08-28T12:52:12.581Z,165
2018-08-28T12:53:22.445Z,210
2018-08-28T12:54:32.581Z,230
2018-08-28T12:55:42.866Z,230
2018-08-28T12:56:53.094Z,215
2018-08-28T12:58:03.268Z,200
2018-08-28T12:59:13.424Z,200
2018-08-28T13:00:23.299Z,220
2018-08-28T13:01:33.483Z,170
2018-08-28T13:02:43.923Z,175
2018-08-28T13:03:53.864Z,225
2018-08-28T13:05:03.991Z,225
2018-08-28T13:06:14.117Z,215
2018-08-28T13:07:24.482Z,220
2018-08-28T13:08:34.451Z,220
2018-08-28T13:09:44.679Z,215
2018-08-28T13:10:54.578Z,215
2018-08-28T13:12:04.925Z,215
2018-08-28T13:13:15.051Z,215
2018-08-28T13:14:25.269Z,215
2018-08-28T13:15:35.470Z,210
2018-08-28T13:16:45.596Z,210
2018-08-28T13:17:55.764Z,205
2018-08-28T13:19:05.689Z,205
2018-08-28T13:20:15.822Z,200
2018-08-28T13:21:26.288Z,200
2018-08-28T13:22:36.142Z,200
2018-08-28T13:23:46.292Z,200
2018-08-28T13:24:56.155Z,205
2018-08-28T13:26:07.326Z,205
2018-08-28T13:27:17.552Z,205
2018-08-28T13:28:27.684Z,205
2018-08-28T13:29:37.830Z,205
2018-08-28T13:30:47.693Z,205
2018-08-28T13:31:58.105Z,210
2018-08-28T13:33:08.330Z,205
2018-08-28T13:34:18.489Z,205
2018-08-28T13:35:28.638Z,205
2018-08-28T13:36:38.786Z,205
2018-08-28T13:37:48.933Z,210
2018-08-28T13:38:59.118Z,210
2018-08-28T13:40:09.274Z,210
2018-08-28T13:41:19.445Z,210
2018-08-28T13:42:29.615Z,205
2018-08-28T13:43:39.958Z,200
2018-08-28T13:44:49.900Z,195
2018-08-28T13:46:00.027Z,190
2018-08-28T13:47:10.696Z,190
2018-08-28T13:48:20.824Z,190
2018-08-28T13:49:30.695Z,190
2018-08-28T13:50:40.876Z,185
2018-08-28T13:51:51.051Z,185
2018-08-28T13:53:01.195Z,185
2018-08-28T13:54:11.654Z,185
2018-08-28T13:55:21.807Z,185
2018-08-28T13:56:31.989Z,190
2018-08-28T13:57:42.134Z,190
2018-08-28T13:58:52.300Z,185
2018-08-28T14:00:02.583Z,185
2018-08-28T14:01:12.810Z,185
2018-08-28T14:02:22.974Z,185
2018-08-28T14:03:33.302Z,185
2018-08-28T14:04:43.418Z,185
2018-08-28T14:05:53.557Z,180
2018-08-28T14:07:03.696Z,180
2018-08-28T14:08:13.796Z,180
2018-08-28T14:09:24.007Z,180
2018-08-28T14:10:34.226Z,180
2018-08-28T14:11:44.185Z,175
2018-08-28T14:12:53.939Z,180
2018-08-28T14:14:04.751Z,180
2018-08-28T14:15:15.352Z,175
2018-08-28T14:16:25.265Z,175
2018-08-28T14:17:35.097Z,175
2018-08-28T14:18:44.942Z,175
2018-08-28T14:19:55.127Z,175
2018-08-28T14:21:05.219Z,175
2018-08-28T14:22:15.140Z,175
2018-08-28T14:23:24.724Z,175
2018-08-28T14:24:35.456Z,170
2018-08-28T14:25:45.273Z,170
2018-08-28T14:26:55.389Z,170
2018-08-28T14:28:05.720Z,170
2018-08-28T14:29:16.145Z,170
2018-08-28T14:30:26.342Z,165
2018-08-28T14:31:36.525Z,165
2018-08-28T14:32:46.651Z,165
2018-08-28T14:33:56.511Z,165
2018-08-28T14:35:06.638Z,165
2018-08-28T14:36:17.842Z,165
2018-08-28T14:37:28.551Z,165
2018-08-28T14:38:38.716Z,160
2018-08-28T14:39:48.817Z,160
2018-08-28T14:40:59.221Z,160
2018-08-28T14:42:09.357Z,160
2018-08-28T14:43:20.344Z,160
2018-08-28T14:44:30.533Z,160
2018-08-28T14:45:40.703Z,155
2018-08-28T14:46:50.823Z,155
2018-08-28T14:48:00.431Z,155
2018-08-28T14:49:10.601Z,155
2018-08-28T14:50:20.831Z,155
2018-08-28T14:51:31.037Z,155
2018-08-28T14:52:41.263Z,150
2018-08-28T14:53:52.215Z,150
2018-08-28T14:55:02.415Z,150
2018-08-28T14:56:12.564Z,150
2018-08-28T14:57:22.682Z,150
2018-08-28T14:58:32.838Z,150
2018-08-28T14:59:42.959Z,145
2018-08-28T15:00:53.151Z,145
2018-08-28T15:02:03.473Z,145
2018-08-28T15:03:13.333Z,145
2018-08-28T15:04:23.431Z,145
2018-08-28T15:05:33.521Z,145
2018-08-28T15:06:43.663Z,140
2018-08-28T15:07:53.789Z,140
2018-08-28T15:09:03.375Z,140
2018-08-28T15:10:13.978Z,140
2018-08-28T15:11:24.491Z,140
2018-08-28T15:12:34.595Z,140
2018-08-28T15:13:44.469Z,140
2018-08-28T15:14:54.617Z,140
2018-08-28T15:16:04.735Z,140
2018-08-28T15:17:14.928Z,135
2018-08-28T15:18:25.438Z,135
2018-08-28T15:19:35.630Z,135
2018-08-28T15:20:45.782Z,135
2018-08-28T15:21:55.920Z,135
2018-08-28T15:23:06.017Z,130
2018-08-28T15:24:16.111Z,130
2018-08-28T15:25:26.259Z,130
2018-08-28T15:26:36.351Z,130
2018-08-28T15:27:46.542Z,130
2018-08-28T15:28:56.630Z,130
2018-08-28T15:30:06.770Z,130
2018-08-28T15:31:16.612Z,130
2018-08-28T15:32:26.706Z,125
2018-08-28T15:33:36.793Z,125
2018-08-28T15:34:46.866Z,125
2018-08-28T15:35:56.962Z,120
2018-08-28T15:37:07.070Z,120
2018-08-28T15:38:16.896Z,120
2018-08-28T15:39:27.032Z,120
2018-08-28T15:40:37.132Z,120
2018-08-28T15:41:47.229Z,115
2018-08-28T15:42:57.607Z,115
2018-08-28T15:44:07.735Z,115
2018-08-28T15:45:17.914Z,115
2018-08-28T15:46:27.748Z,115
2018-08-28T15:47:37.591Z,110
2018-08-28T15:48:47.749Z,110
2018-08-28T15:49:57.857Z,110
2018-08-28T15:51:08.382Z,110
2018-08-28T15:52:18.562Z,110
2018-08-28T15:53:28.689Z,105
2018-08-28T15:54:38.791Z,105
2018-08-28T15:55:48.890Z,105
2018-08-28T15:56:58.967Z,105
2018-08-28T15:58:09.054Z,105
2018-08-28T15:59:19.312Z,100
2018-08-28T16:00:29.392Z,100
2018-08-28T16:01:39.499Z,100
2018-08-28T16:02:49.592Z,100
2018-08-28T16:03:59.480Z,100
2018-08-28T16:05:09.578Z,95
2018-08-28T16:06:19.694Z,95
2018-08-28T16:07:30.038Z,95
2018-08-28T16:08:40.146Z,95
2018-08-28T16:09:50.254Z,95
2018-08-28T16:11:00.403Z,95
2018-08-28T16:12:10.519Z,95
2018-08-28T16:13:20.611Z,95
2018-08-28T16:14:30.736Z,95
2018-08-28T16:15:40.839Z,90
2018-08-28T16:16:50.680Z,90
2018-08-28T16:18:00.963Z,90
2018-08-28T16:19:11.124Z,90
2018-08-28T16:20:21.225Z,85
2018-08-28T16:21:31.324Z,85
2018-08-28T16:22:40.890Z,85
2018-08-28T16:23:51.602Z,85
2018-08-28T16:25:01.765Z,85
2018-08-28T16:26:11.870Z,80
2018-08-28T16:27:21.956Z,80
2018-08-28T16:28:32.642Z,80
2018-08-28T16:29:42.732Z,75
2018-08-28T16:30:52.821Z,75
2018-08-28T16:32:03.298Z,75
2018-08-28T16:33:13.472Z,70
2018-08-28T16:34:23.604Z,70
2018-08-28T16:35:33.738Z,70
2018-08-28T16:36:43.855Z,65
2018-08-28T16:37:53.725Z,65
2018-08-28T16:39:03.835Z,65
2018-08-28T16:40:13.915Z,60
2018-08-28T16:41:24.492Z,60
2018-08-28T16:42:34.601Z,60
2018-08-28T16:43:44.699Z,60
2018-08-28T16:44:54.536Z,55
2018-08-28T16:46:04.657Z,55
2018-08-28T16:47:14.804Z,55
2018-08-28T16:48:25.066Z,55
2018-08-28T16:49:35.261Z,55
2018-08-28T16:50:45.117Z,55
2018-08-28T16:51:55.220Z,55
2018-08-28T16:53:05.305Z,50
2018-08-28T16:54:15.500Z,50
2018-08-28T16:55:25.619Z,50
2018-08-28T16:56:35.503Z,50
2018-08-28T16:57:45.369Z,45
2018-08-28T16:58:55.469Z,45
2018-08-28T17:00:05.575Z,45